createdAt,value
2023-02-25T00:01:48.726Z,77.32
2023-02-25T00:04:22.997Z,79.18
2023-02-25T00:06:51.010Z,75.10
2023-02-25T00:09:18.814Z,76.55
2023-02-25T00:11:47.415Z,76.72
2023-02-25T00:14:14.898Z,75.80
2023-02-25T00:16:42.846Z,75.45
2023-02-25T00:19:10.660Z,76.43
2023-02-25T00:21:38.533Z,73.05
2023-02-25T00:24:15.949Z,76.60
2023-02-25T00:26:45.247Z,74.18
2023-02-25T00:29:15.371Z,73.00
2023-02-25T00:31:44.099Z,72.15
2023-02-25T00:34:12.143Z,75.30
2023-02-25T00:36:40.197Z,76.15
2023-02-25T00:39:09.219Z,79.85
2023-02-25T00:41:37.333Z,72.22
2023-02-25T00:44:05.528Z,74.88
2023-02-25T00:46:34.020Z,72.07
2023-02-25T00:49:02.338Z,72.70
2023-02-25T00:51:32.491Z,74.40
2023-02-25T00:54:00.975Z,75.22
2023-02-25T00:56:28.916Z,72.68
2023-02-25T00:58:56.995Z,71.45
2023-02-25T01:01:30.619Z,72.13
2023-02-25T01:03:59.206Z,71.07
2023-02-25T01:06:29.083Z,70.20
2023-02-25T01:08:59.485Z,71.22
2023-02-25T01:11:32.882Z,74.22
2023-02-25T01:14:03.745Z,75.60
2023-02-25T01:16:33.907Z,76.72
2023-02-25T01:19:06.142Z,78.28
2023-02-25T01:21:37.666Z,79.40
2023-02-25T01:24:14.243Z,85.63
2023-02-25T01:26:44.627Z,85.00
2023-02-25T01:29:17.487Z,90.90
2023-02-25T01:31:46.137Z,96.00
2023-02-25T01:34:16.570Z,94.35
2023-02-25T01:36:45.806Z,93.20
2023-02-25T01:39:15.818Z,95.78
2023-02-25T01:41:46.683Z,95.57
2023-02-25T01:44:25.101Z,100.15
2023-02-25T01:46:54.127Z,103.10
2023-02-25T01:49:46.034Z,101.35
2023-02-25T01:52:24.331Z,110.05
2023-02-25T01:54:58.396Z,102.88
2023-02-25T01:57:27.053Z,105.55
2023-02-25T01:59:55.722Z,109.05
2023-02-25T02:02:26.666Z,108.63
2023-02-25T02:04:55.869Z,106.13
2023-02-25T02:07:24.937Z,106.53
2023-02-25T02:09:59.973Z,106.57
2023-02-25T02:12:48.922Z,107.35
2023-02-25T02:15:16.480Z,107.85
2023-02-25T02:18:00.599Z,105.22
2023-02-25T02:20:43.088Z,107.15
2023-02-25T02:23:45.310Z,105.60
2023-02-25T02:26:44.904Z,107.05
2023-02-25T02:29:22.498Z,106.55
2023-02-25T02:32:15.823Z,106.22
2023-02-25T02:35:01.650Z,105.05
2023-02-25T02:37:33.691Z,110.55
2023-02-25T02:40:01.649Z,107.38
2023-02-25T02:43:02.247Z,107.50
2023-02-25T02:45:41.878Z,105.70
2023-02-25T02:48:34.073Z,105.53
2023-02-25T02:51:06.291Z,102.03
2023-02-25T02:53:42.203Z,103.05
2023-02-25T02:56:14.775Z,101.43
2023-02-25T02:58:53.011Z,100.32
2023-02-25T03:01:30.451Z,96.70
2023-02-25T03:04:08.492Z,95.28
2023-02-25T03:06:42.400Z,93.82
2023-02-25T03:11:45.088Z,87.03
2023-02-25T03:14:14.758Z,91.47
2023-02-25T03:16:51.751Z,86.00
2023-02-25T03:19:24.732Z,82.93
2023-02-25T03:21:58.797Z,77.70
2023-02-25T03:24:33.229Z,64.50
2023-02-25T03:27:15.978Z,64.55
2023-02-25T03:29:43.924Z,64.07
2023-02-25T03:32:16.141Z,63.53
2023-02-25T03:34:49.554Z,60.63
2023-02-25T03:37:28.466Z,63.70
2023-02-25T03:40:00.935Z,63.88
2023-02-25T03:42:33.981Z,64.82
2023-02-25T03:45:05.473Z,64.47
2023-02-25T03:47:37.965Z,65.13
2023-02-25T03:50:31.790Z,66.95
2023-02-25T03:53:03.672Z,65.90
2023-02-25T03:55:49.960Z,64.15
2023-02-25T03:58:17.654Z,67.68
2023-02-25T04:00:48.913Z,67.47
2023-02-25T04:03:16.914Z,67.68
2023-02-25T04:05:44.993Z,68.78
2023-02-25T04:08:16.525Z,68.05
2023-02-25T04:10:47.075Z,67.95
2023-02-25T04:13:17.444Z,66.18
2023-02-25T04:15:45.856Z,73.85
2023-02-25T04:18:15.225Z,68.97
2023-02-25T04:20:43.279Z,69.97
2023-02-25T04:23:16.732Z,65.25
2023-02-25T04:28:12.359Z,63.20
2023-02-25T04:30:40.324Z,65.85
2023-02-25T04:33:08.190Z,63.58
2023-02-25T04:35:36.186Z,64.07
2023-02-25T04:38:03.975Z,63.00
2023-02-25T04:40:31.608Z,63.30
2023-02-25T04:42:59.964Z,65.35
2023-02-25T04:45:28.650Z,60.80
2023-02-25T04:48:00.032Z,58.75
2023-02-25T04:50:27.536Z,57.42
2023-02-25T04:52:55.170Z,58.20
2023-02-25T04:55:23.309Z,57.90
2023-02-25T04:57:51.031Z,57.55
2023-02-25T05:00:24.324Z,61.33
2023-02-25T05:02:52.632Z,57.88
2023-02-25T05:05:20.543Z,58.75
2023-02-25T05:07:48.541Z,56.97
2023-02-25T05:10:16.143Z,60.53
2023-02-25T05:12:43.742Z,56.42
2023-02-25T05:15:12.266Z,59.42
2023-02-25T05:17:40.250Z,58.58
2023-02-25T05:20:12.889Z,57.03
2023-02-25T05:22:41.865Z,58.23
2023-02-25T05:25:11.289Z,57.20
2023-02-25T05:27:39.407Z,57.05
2023-02-25T05:30:08.137Z,55.85
2023-02-25T05:32:36.128Z,57.03
2023-02-25T05:35:03.837Z,56.30
2023-02-25T05:37:32.228Z,58.05
2023-02-25T05:40:03.464Z,57.70
2023-02-25T05:42:31.844Z,59.05
2023-02-25T05:44:59.748Z,56.22
2023-02-25T05:47:27.924Z,58.97
2023-02-25T05:49:55.462Z,58.83
2023-02-25T05:52:23.973Z,56.42
2023-02-25T05:54:51.512Z,55.17
2023-02-25T05:57:19.615Z,57.00
2023-02-25T05:59:47.807Z,55.40
2023-02-25T06:02:15.881Z,55.53
2023-02-25T06:04:43.414Z,58.63
2023-02-25T06:07:11.368Z,58.83
2023-02-25T06:09:39.966Z,62.53
2023-02-25T06:12:08.287Z,57.03
2023-02-25T06:14:36.272Z,58.60
2023-02-25T06:17:04.772Z,54.15
2023-02-25T06:19:32.324Z,58.35
2023-02-25T06:22:00.290Z,55.47
2023-02-25T06:24:28.136Z,54.63
2023-02-25T06:26:56.888Z,53.15
2023-02-25T06:29:25.031Z,52.53
2023-02-25T06:31:55.000Z,54.60
2023-02-25T06:34:22.999Z,53.58
2023-02-25T06:36:51.562Z,49.08
2023-02-25T06:39:19.477Z,50.60
2023-02-25T06:41:47.015Z,48.90
2023-02-25T06:44:15.917Z,48.40
2023-02-25T06:46:44.538Z,48.08
2023-02-25T06:49:12.927Z,48.03
2023-02-25T06:51:41.296Z,47.15
2023-02-25T06:54:08.760Z,46.33
2023-02-25T06:56:36.781Z,47.95
2023-02-25T06:59:04.434Z,48.33
2023-02-25T07:01:32.256Z,45.97
2023-02-25T07:04:00.768Z,48.20
2023-02-25T07:06:28.909Z,46.65
2023-02-25T07:08:57.391Z,48.33
2023-02-25T07:11:24.996Z,43.38
2023-02-25T07:13:52.962Z,46.00
2023-02-25T07:16:22.129Z,46.47
2023-02-25T07:18:50.942Z,46.58
2023-02-25T07:21:19.229Z,45.13
2023-02-25T07:23:47.250Z,43.90
2023-02-25T07:26:16.280Z,43.60
2023-02-25T07:28:44.191Z,44.28
2023-02-25T07:31:18.227Z,43.05
2023-02-25T07:33:47.057Z,43.45
2023-02-25T07:36:15.531Z,42.63
2023-02-25T07:38:43.584Z,42.08
2023-02-25T07:41:14.309Z,42.75
2023-02-25T07:43:42.927Z,42.83
2023-02-25T07:46:11.399Z,43.08
2023-02-25T07:48:39.251Z,46.38
2023-02-25T07:51:13.265Z,43.65
2023-02-25T07:53:41.657Z,40.65
2023-02-25T07:56:10.295Z,44.28
2023-02-25T07:58:38.781Z,42.08
2023-02-25T08:01:11.933Z,41.83
2023-02-25T08:03:39.938Z,36.65
2023-02-25T08:06:09.190Z,39.10
2023-02-25T08:08:38.286Z,41.67
2023-02-25T08:11:11.978Z,39.80
2023-02-25T08:16:09.698Z,37.70
2023-02-25T08:18:38.281Z,42.38
2023-02-25T08:21:06.544Z,38.70
2023-02-25T08:23:34.528Z,42.15
2023-02-25T08:26:02.870Z,40.40
2023-02-25T08:28:34.324Z,40.80
2023-02-25T08:31:04.449Z,40.85
2023-02-25T08:33:32.065Z,41.75
2023-02-25T08:36:12.052Z,41.22
2023-02-25T08:38:39.940Z,39.70
2023-02-25T08:41:08.844Z,38.88
2023-02-25T08:43:37.478Z,40.15
2023-02-25T08:46:06.798Z,40.67
2023-02-25T08:48:36.250Z,41.50
2023-02-25T08:51:09.040Z,41.25
2023-02-25T08:53:39.121Z,43.77
2023-02-25T08:56:10.066Z,39.92
2023-02-25T08:58:39.521Z,39.28
2023-02-25T09:01:09.231Z,38.13
2023-02-25T09:03:37.605Z,42.63
2023-02-25T09:06:05.488Z,41.28
2023-02-25T09:08:33.814Z,37.95
2023-02-25T09:11:05.871Z,34.60
2023-02-25T09:13:33.388Z,34.53
2023-02-25T09:16:01.490Z,31.60
2023-02-25T09:18:31.198Z,29.08
2023-02-25T09:20:59.341Z,29.45
2023-02-25T09:23:26.953Z,35.22
2023-02-25T09:25:54.545Z,33.55
2023-02-25T09:28:24.468Z,33.05
2023-02-25T09:30:53.257Z,30.52
2023-02-25T09:33:21.241Z,32.03
2023-02-25T09:35:49.186Z,31.90
2023-02-25T09:38:17.523Z,29.73
2023-02-25T09:40:49.631Z,29.30
2023-02-25T09:43:42.595Z,29.45
2023-02-25T09:46:14.643Z,28.10
2023-02-25T09:48:54.119Z,27.65
2023-02-25T09:51:34.695Z,26.55
2023-02-25T09:54:30.381Z,27.88
2023-02-25T09:57:01.906Z,29.60
2023-02-25T09:59:31.268Z,29.52
2023-02-25T10:02:02.327Z,29.48
2023-02-25T10:04:46.659Z,30.27
2023-02-25T10:07:27.024Z,33.20
2023-02-25T10:10:02.632Z,32.95
2023-02-25T10:12:39.432Z,29.98
2023-02-25T10:15:32.109Z,31.67
2023-02-25T10:18:15.400Z,30.65
2023-02-25T10:20:47.964Z,30.63
2023-02-25T10:23:37.889Z,29.75
2023-02-25T10:26:18.172Z,30.65
2023-02-25T10:28:55.609Z,29.02
2023-02-25T10:31:24.046Z,28.25
2023-02-25T10:33:53.929Z,26.17
2023-02-25T10:36:39.589Z,25.50
2023-02-25T10:39:11.526Z,27.85
2023-02-25T10:41:39.181Z,25.85
2023-02-25T10:44:15.955Z,25.65
2023-02-25T10:46:43.924Z,26.70
2023-02-25T10:49:16.483Z,24.73
2023-02-25T10:51:58.486Z,24.83
2023-02-25T10:54:29.447Z,26.52
2023-02-25T10:57:02.456Z,25.67
2023-02-25T10:59:39.422Z,26.40
2023-02-25T11:02:25.793Z,21.77
2023-02-25T11:04:54.922Z,22.13
2023-02-25T11:07:38.359Z,23.33
2023-02-25T11:10:21.742Z,22.95
2023-02-25T11:12:55.524Z,22.67
2023-02-25T11:15:45.647Z,21.42
2023-02-25T11:18:23.867Z,23.00
2023-02-25T11:20:57.546Z,21.75
2023-02-25T11:25:58.445Z,17.08
2023-02-25T11:28:29.382Z,19.83
2023-02-25T11:31:17.487Z,21.75
2023-02-25T11:33:57.362Z,17.38
2023-02-25T11:36:30.932Z,16.85
2023-02-25T11:39:26.616Z,17.55
2023-02-25T11:41:57.196Z,17.92
2023-02-25T11:44:42.713Z,15.48
2023-02-25T11:50:17.024Z,14.05
2023-02-25T11:53:13.403Z,14.02
2023-02-25T11:56:16.053Z,14.43
2023-02-25T11:59:13.397Z,14.60
2023-02-25T12:02:19.492Z,11.75
2023-02-25T12:05:15.514Z,10.23
2023-02-25T12:08:33.107Z,9.63
2023-02-25T12:11:19.688Z,10.63
2023-02-25T12:14:05.059Z,11.93
2023-02-25T12:17:01.001Z,11.27
2023-02-25T12:19:47.213Z,10.77
2023-02-25T12:22:15.337Z,11.25
2023-02-25T12:24:45.778Z,11.50
2023-02-25T12:27:47.560Z,11.10
2023-02-25T12:30:42.901Z,18.70
2023-02-25T12:33:41.850Z,11.88
2023-02-25T12:37:01.874Z,12.05
2023-02-25T12:39:47.907Z,12.07
2023-02-25T12:42:49.427Z,10.82
2023-02-25T12:45:25.998Z,9.25
2023-02-25T12:48:24.522Z,8.30
2023-02-25T12:50:52.040Z,9.15
2023-02-25T12:53:26.620Z,10.80
2023-02-25T12:56:44.659Z,10.52
2023-02-25T12:59:47.556Z,10.95
2023-02-25T13:02:40.897Z,10.45
2023-02-25T13:05:46.349Z,11.57
2023-02-25T13:08:38.225Z,11.68
2023-02-25T13:12:09.971Z,11.18
2023-02-25T13:14:53.582Z,10.48
2023-02-25T13:17:46.399Z,11.50
2023-02-25T13:20:35.248Z,10.73
2023-02-25T13:23:03.245Z,12.43
2023-02-25T13:26:02.409Z,11.63
2023-02-25T13:28:43.116Z,13.68
2023-02-25T13:31:25.593Z,11.98
2023-02-25T13:34:38.894Z,13.15
2023-02-25T13:37:23.985Z,13.18
2023-02-25T13:40:12.330Z,13.77
2023-02-25T13:43:07.018Z,13.77
2023-02-25T13:46:02.493Z,13.85
2023-02-25T13:48:52.688Z,13.48
2023-02-25T13:52:09.831Z,13.85
2023-02-25T13:54:46.530Z,15.35
2023-02-25T13:57:43.123Z,12.95
2023-02-25T14:00:26.301Z,14.38
2023-02-25T14:03:14.978Z,14.48
2023-02-25T14:06:00.977Z,13.30
2023-02-25T14:09:09.778Z,13.93
2023-02-25T14:11:43.786Z,13.70
2023-02-25T14:14:20.693Z,13.65
2023-02-25T14:17:24.401Z,14.52
2023-02-25T14:20:49.002Z,14.47
2023-02-25T14:23:25.682Z,14.65
2023-02-25T14:26:22.803Z,14.45
2023-02-25T14:29:39.265Z,14.50
2023-02-25T14:32:18.630Z,15.02
2023-02-25T14:35:15.927Z,15.30
2023-02-25T14:38:03.006Z,14.18
2023-02-25T14:40:34.455Z,15.30
2023-02-25T14:43:14.752Z,14.93
2023-02-25T14:45:50.935Z,15.07
2023-02-25T14:48:26.825Z,15.85
2023-02-25T14:51:39.752Z,16.13
2023-02-25T14:54:34.307Z,17.77
2023-02-25T14:57:20.835Z,16.42
2023-02-25T15:00:07.018Z,18.95
2023-02-25T15:02:45.276Z,18.73
2023-02-25T15:05:34.298Z,16.48
2023-02-25T15:08:17.842Z,18.70
2023-02-25T15:11:11.956Z,16.35
2023-02-25T15:14:04.694Z,17.13
2023-02-25T15:16:53.761Z,17.88
2023-02-25T15:19:34.484Z,19.50
2023-02-25T15:22:24.036Z,19.60
2023-02-25T15:25:13.051Z,19.42
2023-02-25T15:27:41.082Z,19.80
2023-02-25T15:30:18.511Z,20.30
2023-02-25T15:33:16.142Z,20.27
2023-02-25T15:35:43.588Z,19.50
2023-02-25T15:38:13.633Z,20.95
2023-02-25T15:40:45.094Z,20.98
2023-02-25T15:43:14.243Z,20.70
2023-02-25T15:46:08.114Z,21.45
2023-02-25T15:48:39.101Z,22.73
2023-02-25T15:51:31.862Z,23.48
2023-02-25T15:54:00.254Z,21.42
2023-02-25T15:56:46.549Z,23.40
2023-02-25T15:59:48.153Z,20.25
2023-02-25T16:02:33.288Z,23.10
2023-02-25T16:05:28.163Z,23.52
2023-02-25T16:08:17.534Z,22.60
2023-02-25T16:10:49.507Z,22.73
2023-02-25T16:13:27.506Z,22.10
2023-02-25T16:15:57.676Z,21.65
2023-02-25T16:18:32.964Z,23.77
2023-02-25T16:21:07.839Z,24.55
2023-02-25T16:23:41.156Z,24.95
2023-02-25T16:26:20.680Z,24.83
2023-02-25T16:29:01.238Z,25.10
2023-02-25T16:31:49.638Z,26.10
2023-02-25T16:34:27.440Z,27.92
2023-02-25T16:37:07.223Z,28.73
2023-02-25T16:39:36.232Z,28.50
2023-02-25T16:42:08.738Z,28.65
2023-02-25T16:44:39.094Z,29.35
2023-02-25T16:47:23.422Z,26.60
2023-02-25T16:49:53.251Z,27.98
2023-02-25T16:52:30.443Z,26.85
2023-02-25T16:55:01.499Z,25.75
2023-02-25T16:57:29.562Z,27.65
2023-02-25T17:00:17.742Z,27.20
2023-02-25T17:02:48.526Z,28.00
2023-02-25T17:05:32.540Z,29.17
2023-02-25T17:08:02.917Z,27.65
2023-02-25T17:10:43.750Z,29.10
2023-02-25T17:13:17.578Z,27.08
2023-02-25T17:15:46.198Z,25.60
2023-02-25T17:18:31.172Z,26.10
2023-02-25T17:21:03.927Z,26.02
2023-02-25T17:23:39.441Z,25.93
2023-02-25T17:26:09.674Z,26.48
2023-02-25T17:28:37.430Z,28.58
2023-02-25T17:31:15.282Z,39.17
2023-02-25T17:33:49.633Z,36.03
2023-02-25T17:36:22.227Z,40.35
2023-02-25T17:38:55.761Z,46.20
2023-02-25T17:41:24.897Z,48.22
2023-02-25T17:43:52.770Z,50.38
2023-02-25T17:46:24.031Z,50.92
2023-02-25T17:48:57.003Z,50.90
2023-02-25T17:51:33.319Z,50.00
2023-02-25T17:54:09.481Z,52.88
2023-02-25T17:56:38.095Z,51.85
2023-02-25T17:59:42.429Z,51.30
2023-02-25T18:02:22.909Z,51.40
2023-02-25T18:05:07.739Z,55.40
2023-02-25T18:07:37.960Z,57.17
2023-02-25T18:10:26.424Z,52.95
2023-02-25T18:12:55.478Z,53.08
2023-02-25T18:15:26.569Z,53.00
2023-02-25T18:17:56.998Z,55.83
2023-02-25T18:20:44.136Z,51.50
2023-02-25T18:23:21.110Z,53.15
2023-02-25T18:26:07.481Z,50.97
2023-02-25T18:28:36.221Z,54.58
2023-02-25T18:31:04.967Z,52.30
2023-02-25T18:33:32.973Z,49.92
2023-02-25T18:36:01.176Z,51.50
2023-02-25T18:38:30.963Z,51.30
2023-02-25T18:40:59.623Z,49.55
2023-02-25T18:43:30.750Z,53.60
2023-02-25T18:45:59.658Z,50.65
2023-02-25T18:48:28.201Z,50.80
2023-02-25T18:50:58.334Z,50.38
2023-02-25T18:53:27.360Z,51.15
2023-02-25T18:55:56.727Z,52.80
2023-02-25T18:58:25.860Z,53.72
2023-02-25T19:00:56.528Z,55.83
2023-02-25T19:03:40.161Z,57.00
2023-02-25T19:06:07.758Z,54.63
2023-02-25T19:08:35.368Z,55.00
2023-02-25T19:11:04.302Z,58.45
2023-02-25T19:13:43.247Z,57.33
2023-02-25T19:16:11.461Z,59.15
2023-02-25T19:18:42.943Z,59.08
2023-02-25T19:21:14.901Z,57.15
2023-02-25T19:23:42.692Z,56.75
2023-02-25T19:26:11.187Z,58.17
2023-02-25T19:28:39.367Z,55.60
2023-02-25T19:31:08.017Z,56.97
2023-02-25T19:33:35.917Z,58.28
2023-02-25T19:36:05.562Z,56.75
2023-02-25T19:38:33.330Z,56.13
2023-02-25T19:41:04.225Z,58.25
2023-02-25T19:43:33.076Z,59.08
2023-02-25T19:46:01.106Z,59.15
2023-02-25T19:48:28.674Z,57.47
2023-02-25T19:50:57.422Z,58.88
2023-02-25T19:53:26.219Z,59.53
2023-02-25T19:55:57.172Z,55.38
2023-02-25T19:58:25.081Z,56.85
2023-02-25T20:00:53.109Z,58.05
2023-02-25T20:03:21.150Z,59.55
2023-02-25T20:05:49.736Z,54.53
2023-02-25T20:08:17.313Z,56.97
2023-02-25T20:10:44.851Z,57.00
2023-02-25T20:13:12.537Z,54.10
2023-02-25T20:15:41.058Z,55.72
2023-02-25T20:18:08.685Z,54.70
2023-02-25T20:20:37.258Z,54.40
2023-02-25T20:23:05.408Z,54.28
2023-02-25T20:25:33.652Z,53.55
2023-02-25T20:28:01.681Z,55.03
2023-02-25T20:30:29.781Z,56.00
2023-02-25T20:32:59.389Z,57.05
2023-02-25T20:35:27.700Z,54.83
2023-02-25T20:38:21.909Z,58.35
2023-02-25T20:40:49.722Z,59.00
2023-02-25T20:43:18.619Z,55.53
2023-02-25T20:45:46.549Z,54.03
2023-02-25T20:48:30.303Z,57.17
2023-02-25T20:50:59.388Z,58.33
2023-02-25T20:53:27.091Z,56.25
2023-02-25T20:55:57.595Z,55.22
2023-02-25T20:58:26.024Z,57.05
2023-02-25T21:00:53.667Z,56.55
2023-02-25T21:03:21.187Z,53.15
2023-02-25T21:05:49.149Z,56.15
2023-02-25T21:08:17.225Z,55.58
2023-02-25T21:10:45.988Z,52.80
2023-02-25T21:13:15.798Z,52.38
2023-02-25T21:15:44.063Z,54.90
2023-02-25T21:18:11.572Z,53.88
2023-02-25T21:20:40.053Z,56.72
2023-02-25T21:23:08.979Z,56.03
2023-02-25T21:25:38.347Z,53.60
2023-02-25T21:28:05.964Z,56.80
2023-02-25T21:30:34.068Z,55.80
2023-02-25T21:33:02.863Z,56.55
2023-02-25T21:35:30.928Z,53.15
2023-02-25T21:37:58.832Z,54.45
2023-02-25T21:40:27.157Z,55.03
2023-02-25T21:42:55.553Z,53.22
2023-02-25T21:45:23.662Z,54.60
2023-02-25T21:47:51.415Z,52.47
2023-02-25T21:50:19.207Z,55.30
2023-02-25T21:52:47.417Z,55.55
2023-02-25T21:55:16.037Z,53.58
2023-02-25T21:57:43.704Z,54.92
2023-02-25T22:00:12.179Z,57.67
2023-02-25T22:02:40.740Z,56.63
2023-02-25T22:05:08.722Z,54.22
2023-02-25T22:07:36.888Z,53.45
2023-02-25T22:10:05.265Z,54.88
2023-02-25T22:12:32.722Z,53.80
2023-02-25T22:15:00.228Z,56.97
2023-02-25T22:17:28.714Z,52.85
2023-02-25T22:19:56.820Z,53.55
2023-02-25T22:22:25.077Z,56.65
2023-02-25T22:24:52.525Z,52.78
2023-02-25T22:27:21.078Z,53.35
2023-02-25T22:29:49.199Z,51.97
2023-02-25T22:32:18.197Z,58.08
2023-02-25T22:34:46.512Z,55.72
2023-02-25T22:37:14.585Z,55.67
2023-02-25T22:39:43.295Z,54.67
2023-02-25T22:42:11.374Z,53.40
2023-02-25T22:44:39.966Z,54.10
2023-02-25T22:47:07.610Z,55.83
2023-02-25T22:49:35.111Z,55.70
2023-02-25T22:52:03.712Z,53.40
2023-02-25T22:54:32.189Z,56.47
2023-02-25T22:56:59.835Z,56.03
2023-02-25T22:59:27.395Z,56.20
2023-02-25T23:01:55.020Z,52.67
2023-02-25T23:04:22.656Z,63.92
2023-02-25T23:06:54.068Z,55.58
2023-02-25T23:09:22.673Z,56.78
2023-02-25T23:11:51.047Z,52.38
2023-02-25T23:14:18.956Z,55.42
2023-02-25T23:16:47.064Z,53.25
2023-02-25T23:19:18.274Z,57.63
2023-02-25T23:21:46.446Z,59.80
2023-02-25T23:24:18.761Z,66.47
2023-02-25T23:26:50.653Z,62.65
2023-02-25T23:29:19.029Z,60.40
2023-02-25T23:31:48.506Z,55.35
2023-02-25T23:34:23.326Z,57.88
2023-02-25T23:36:56.038Z,61.63
2023-02-25T23:39:24.240Z,59.75
2023-02-25T23:41:51.774Z,56.72
2023-02-25T23:44:20.212Z,56.00
2023-02-25T23:46:47.721Z,56.22
2023-02-25T23:49:16.792Z,56.65
2023-02-25T23:51:46.772Z,55.50
2023-02-25T23:54:17.669Z,55.80
2023-02-25T23:56:45.543Z,55.63
2023-02-25T23:59:13.236Z,56.95
